Terminal Aerodrome Forecast
Issued by NWS Bismarck, ND

Home | Current Version | Previous Version | Text Only | Print | Product List | Glossary Off
Versions: 1 2 3 4 5 6 7 8 9 10 11 12 13 14 15

882
FTUS43 KBIS 220520
TAFBIS
TAF
KBIS 220520Z 2206/2306 16021G25KT P6SM BKN050
     FM221100 14015KT P6SM VCSH BKN015
     FM221400 16013KT P6SM VCSH OVC008
     FM221700 17015KT P6SM BKN015
     FM222100 17014KT P6SM BKN040=

USA.gov is the U.S. government's official web portal to all federal, state and local government web resources and services.